createdAt,value
2019-04-26T00:01:56.661Z,32.13
2019-04-26T00:04:28.792Z,33.98
2019-04-26T00:07:00.359Z,32.40
2019-04-26T00:09:33.893Z,34.27
2019-04-26T00:12:07.201Z,34.38
2019-04-26T00:14:40.316Z,35.08
2019-04-26T00:17:13.622Z,31.23
2019-04-26T00:19:45.283Z,34.23
2019-04-26T00:22:17.249Z,33.42
2019-04-26T00:24:48.896Z,34.85
2019-04-26T00:27:21.270Z,34.05
2019-04-26T00:29:52.751Z,31.87
2019-04-26T00:34:55.199Z,29.82
2019-04-26T00:39:56.906Z,31.65
2019-04-26T00:44:59.398Z,29.17
2019-04-26T00:47:32.136Z,28.80
2019-04-26T00:50:04.380Z,28.07
2019-04-26T00:52:36.809Z,27.25
2019-04-26T00:55:09.250Z,28.65
2019-04-26T00:57:42.432Z,27.17
2019-04-26T01:00:18.147Z,26.65
2019-04-26T01:02:52.223Z,25.85
2019-04-26T01:05:25.149Z,26.33
2019-04-26T01:07:57.884Z,27.17
2019-04-26T01:10:29.744Z,26.68
2019-04-26T01:13:01.391Z,26.77
2019-04-26T01:15:33.048Z,26.20
2019-04-26T01:18:05.017Z,25.80
2019-04-26T01:20:37.868Z,26.62
2019-04-26T01:23:12.375Z,25.95
2019-04-26T01:25:55.400Z,24.80
2019-04-26T01:28:54.292Z,25.05
2019-04-26T01:31:29.149Z,24.98
2019-04-26T01:34:01.027Z,25.52
2019-04-26T01:36:34.273Z,25.00
2019-04-26T01:39:19.734Z,24.47
2019-04-26T01:41:55.410Z,24.80
2019-04-26T01:44:47.612Z,25.20
2019-04-26T01:47:20.768Z,25.43
2019-04-26T01:49:53.431Z,25.00
2019-04-26T01:52:25.717Z,24.60
2019-04-26T01:54:57.588Z,26.35
2019-04-26T01:57:31.486Z,24.25
2019-04-26T02:00:21.180Z,25.62
2019-04-26T02:02:55.866Z,24.20
2019-04-26T02:05:28.465Z,25.20
2019-04-26T02:08:00.112Z,26.17
2019-04-26T02:10:32.668Z,25.17
2019-04-26T02:13:04.364Z,25.80
2019-04-26T02:15:36.214Z,26.48
2019-04-26T02:18:07.776Z,25.37
2019-04-26T02:20:52.976Z,25.72
2019-04-26T02:23:27.934Z,26.52
2019-04-26T02:26:01.262Z,26.52
2019-04-26T02:28:33.118Z,25.05
2019-04-26T02:31:04.975Z,26.60
2019-04-26T02:33:36.945Z,25.68
2019-04-26T02:36:08.398Z,25.75
2019-04-26T02:38:40.359Z,27.40
2019-04-26T02:41:12.118Z,27.20
2019-04-26T02:43:46.328Z,25.95
2019-04-26T02:46:22.870Z,26.85
2019-04-26T02:49:13.603Z,26.55
2019-04-26T02:51:54.057Z,25.20
2019-04-26T02:54:47.097Z,26.15
2019-04-26T02:57:38.877Z,26.60
2019-04-26T03:00:13.844Z,26.48
2019-04-26T03:02:49.653Z,28.27
2019-04-26T03:05:21.731Z,27.62
2019-04-26T03:08:05.308Z,27.60
2019-04-26T03:10:40.488Z,26.25
2019-04-26T03:13:16.824Z,27.30
2019-04-26T03:16:02.610Z,28.92
2019-04-26T03:18:45.119Z,26.62
2019-04-26T03:21:22.717Z,27.05
2019-04-26T03:24:03.278Z,25.92
2019-04-26T03:26:43.667Z,24.47
2019-04-26T03:29:26.055Z,27.48
2019-04-26T03:32:16.213Z,25.55
2019-04-26T03:35:20.096Z,26.70
2019-04-26T03:38:29.745Z,26.12
2019-04-26T03:41:14.453Z,25.72
2019-04-26T03:43:49.280Z,26.87
2019-04-26T03:46:37.706Z,25.30
2019-04-26T03:49:38.064Z,26.07
2019-04-26T03:52:18.614Z,27.25
2019-04-26T03:54:53.960Z,25.87
2019-04-26T03:57:36.901Z,26.62
2019-04-26T04:00:13.034Z,25.92
2019-04-26T04:02:55.559Z,27.02
2019-04-26T04:05:35.952Z,26.77
2019-04-26T04:08:11.566Z,26.90
2019-04-26T04:10:58.159Z,28.25
2019-04-26T04:14:00.176Z,27.80
2019-04-26T04:16:43.575Z,27.73
2019-04-26T04:19:25.762Z,26.68
2019-04-26T04:22:12.583Z,25.05
2019-04-26T04:24:49.169Z,30.05
2019-04-26T04:27:29.911Z,27.55
2019-04-26T04:30:13.546Z,27.85
2019-04-26T04:32:52.146Z,31.07
2019-04-26T04:35:26.790Z,28.52
2019-04-26T04:38:13.799Z,29.50
2019-04-26T04:40:53.498Z,29.55
2019-04-26T04:43:35.544Z,29.27
2019-04-26T04:46:18.039Z,29.25
2019-04-26T04:48:59.836Z,33.05
2019-04-26T04:51:44.871Z,32.63
2019-04-26T04:54:20.558Z,31.25
2019-04-26T04:57:09.929Z,28.92
2019-04-26T04:59:54.113Z,29.50
2019-04-26T05:02:46.698Z,28.80
2019-04-26T05:05:38.532Z,28.32
2019-04-26T05:08:22.597Z,26.70
2019-04-26T05:10:59.880Z,30.12
2019-04-26T05:13:43.793Z,27.73
2019-04-26T05:16:33.222Z,29.63
2019-04-26T05:19:30.765Z,27.45
2019-04-26T05:22:39.277Z,28.35
2019-04-26T05:25:53.501Z,29.80
2019-04-26T05:28:38.875Z,30.88
2019-04-26T05:31:24.080Z,29.95
2019-04-26T05:34:19.793Z,37.55
2019-04-26T05:37:15.723Z,29.65
2019-04-26T05:39:51.158Z,27.73
2019-04-26T05:42:44.215Z,29.05
2019-04-26T05:45:46.084Z,30.80
2019-04-26T05:48:34.634Z,28.47
2019-04-26T05:51:25.034Z,28.27
2019-04-26T05:54:36.516Z,30.63
2019-04-26T06:00:58.268Z,31.35
2019-04-26T06:03:37.915Z,31.02
2019-04-26T06:06:20.317Z,29.30
2019-04-26T06:09:06.626Z,28.65
2019-04-26T06:11:54.727Z,30.65
2019-04-26T06:15:09.224Z,30.27
2019-04-26T06:17:45.885Z,31.23
2019-04-26T06:20:32.503Z,29.15
2019-04-26T06:23:33.638Z,30.00
2019-04-26T06:26:33.679Z,31.70
2019-04-26T06:29:17.401Z,32.93
2019-04-26T06:31:58.573Z,31.50
2019-04-26T06:34:36.163Z,29.48
2019-04-26T06:37:21.337Z,29.65
2019-04-26T06:40:02.254Z,27.67
2019-04-26T06:43:16.870Z,30.10
2019-04-26T06:46:00.491Z,28.52
2019-04-26T06:48:44.870Z,28.00
2019-04-26T06:51:24.837Z,27.42
2019-04-26T06:54:13.779Z,28.98
2019-04-26T06:56:49.907Z,27.05
2019-04-26T06:59:36.483Z,29.85
2019-04-26T07:02:18.942Z,24.25
2019-04-26T07:05:15.299Z,25.37
2019-04-26T07:07:58.599Z,24.77
2019-04-26T07:10:58.002Z,26.17
2019-04-26T07:13:52.805Z,25.08
2019-04-26T07:16:52.104Z,24.92
2019-04-26T07:20:06.060Z,23.67
2019-04-26T07:23:09.858Z,22.93
2019-04-26T07:26:02.207Z,24.40
2019-04-26T07:28:46.858Z,22.48
2019-04-26T07:31:36.648Z,22.40
2019-04-26T07:34:31.648Z,21.45
2019-04-26T07:37:41.640Z,20.95
2019-04-26T07:40:38.032Z,21.15
2019-04-26T07:43:29.451Z,20.75
2019-04-26T07:46:16.668Z,21.02
2019-04-26T07:49:10.264Z,21.27
2019-04-26T07:52:10.572Z,20.52
2019-04-26T07:55:11.203Z,21.30
2019-04-26T07:57:51.880Z,21.33
2019-04-26T08:00:44.674Z,20.75
2019-04-26T08:03:34.398Z,20.55
2019-04-26T08:08:48.020Z,20.37
2019-04-26T08:11:22.872Z,21.15
2019-04-26T08:14:19.202Z,20.25
2019-04-26T08:17:20.971Z,19.05
2019-04-26T08:19:57.564Z,19.25
2019-04-26T08:22:33.846Z,18.87
2019-04-26T08:25:08.441Z,19.62
2019-04-26T08:27:42.101Z,19.32
2019-04-26T08:30:19.066Z,19.15
2019-04-26T08:32:54.348Z,20.60
2019-04-26T08:35:29.687Z,22.25
2019-04-26T08:38:08.275Z,19.42
2019-04-26T08:40:39.242Z,21.68
2019-04-26T08:43:30.910Z,22.25
2019-04-26T08:46:10.441Z,20.17
2019-04-26T08:48:51.582Z,20.17
2019-04-26T08:51:25.386Z,18.92
2019-04-26T08:53:58.911Z,19.55
2019-04-26T08:56:42.317Z,19.80
2019-04-26T08:59:44.480Z,19.73
2019-04-26T09:02:28.224Z,19.62
2019-04-26T09:05:22.007Z,19.67
2019-04-26T09:07:57.558Z,20.23
2019-04-26T09:10:32.991Z,19.67
2019-04-26T09:13:08.331Z,19.52
2019-04-26T09:16:08.910Z,19.92
2019-04-26T09:18:43.906Z,19.90
2019-04-26T09:21:17.556Z,21.45
2019-04-26T09:24:08.419Z,21.90
2019-04-26T09:26:46.551Z,21.77
2019-04-26T09:29:22.709Z,24.57
2019-04-26T09:31:56.581Z,21.48
2019-04-26T09:34:32.738Z,24.30
2019-04-26T09:37:04.400Z,21.65
2019-04-26T09:39:36.054Z,23.00
2019-04-26T09:42:09.665Z,21.80
2019-04-26T09:44:46.018Z,23.02
2019-04-26T09:47:22.174Z,22.58
2019-04-26T09:50:15.461Z,25.05
2019-04-26T09:52:48.213Z,24.45
2019-04-26T09:55:19.870Z,25.10
2019-04-26T09:57:53.510Z,22.45
2019-04-26T10:00:27.704Z,23.07
2019-04-26T10:03:01.080Z,25.75
2019-04-26T10:05:33.145Z,24.75
2019-04-26T10:08:08.331Z,26.68
2019-04-26T10:10:38.708Z,24.12
2019-04-26T10:13:16.404Z,24.63
2019-04-26T10:15:58.118Z,26.25
2019-04-26T10:18:29.853Z,27.17
2019-04-26T10:21:01.915Z,28.12
2019-04-26T10:23:33.776Z,25.97
2019-04-26T10:26:07.380Z,25.35
2019-04-26T10:28:39.141Z,25.57
2019-04-26T10:31:13.449Z,28.07
2019-04-26T10:33:44.100Z,27.22
2019-04-26T10:36:16.047Z,26.45
2019-04-26T10:38:47.760Z,26.37
2019-04-26T10:41:19.617Z,24.77
2019-04-26T10:43:51.028Z,25.52
2019-04-26T10:46:24.464Z,25.60
2019-04-26T10:49:08.200Z,25.43
2019-04-26T10:51:31.787Z,26.80
2019-04-26T10:54:07.380Z,26.07
2019-04-26T10:56:43.112Z,24.75
2019-04-26T10:59:17.727Z,25.45
2019-04-26T11:01:50.409Z,27.32
2019-04-26T11:04:22.275Z,24.55
2019-04-26T11:06:53.721Z,28.80
2019-04-26T11:09:25.783Z,25.85
2019-04-26T11:11:57.641Z,26.05
2019-04-26T11:14:29.499Z,24.95
2019-04-26T11:17:02.398Z,25.43
2019-04-26T11:19:35.431Z,25.97
2019-04-26T11:22:07.746Z,25.92
2019-04-26T11:24:40.422Z,25.50
2019-04-26T11:27:12.041Z,24.92
2019-04-26T11:29:53.207Z,25.35
2019-04-26T11:32:17.340Z,25.00
2019-04-26T11:34:49.017Z,25.48
2019-04-26T11:37:21.059Z,24.72
2019-04-26T11:39:53.136Z,23.75
2019-04-26T11:42:24.671Z,24.77
2019-04-26T11:45:05.698Z,24.30
2019-04-26T11:47:30.279Z,24.15
2019-04-26T11:50:01.884Z,25.05
2019-04-26T11:52:36.044Z,24.87
2019-04-26T11:55:07.859Z,25.30
2019-04-26T11:57:40.064Z,26.35
2019-04-26T12:00:13.319Z,26.35
2019-04-26T12:02:46.331Z,24.77
2019-04-26T12:05:39.161Z,24.80
2019-04-26T12:08:15.315Z,24.52
2019-04-26T12:10:47.279Z,28.10
2019-04-26T12:13:21.311Z,30.05
2019-04-26T12:15:53.355Z,26.07
2019-04-26T12:18:25.042Z,27.90
2019-04-26T12:20:57.072Z,29.30
2019-04-26T12:23:30.161Z,28.30
2019-04-26T12:26:01.823Z,25.97
2019-04-26T12:28:36.335Z,28.83
2019-04-26T12:31:06.989Z,27.15
2019-04-26T12:33:39.112Z,27.75
2019-04-26T12:36:13.248Z,28.70
2019-04-26T12:38:45.834Z,27.00
2019-04-26T12:41:24.932Z,29.25
2019-04-26T12:43:54.607Z,24.67
2019-04-26T12:46:44.029Z,23.98
2019-04-26T12:49:16.094Z,24.60
2019-04-26T12:51:48.811Z,22.98
2019-04-26T12:54:21.060Z,22.48
2019-04-26T12:56:52.702Z,22.15
2019-04-26T12:59:26.679Z,22.17
2019-04-26T13:02:05.325Z,21.30
2019-04-26T13:04:36.107Z,21.27
2019-04-26T13:07:08.697Z,21.85
2019-04-26T13:09:43.195Z,21.48
2019-04-26T13:12:16.658Z,21.80
2019-04-26T13:15:08.384Z,20.10
2019-04-26T13:17:41.881Z,20.12
2019-04-26T13:20:13.846Z,20.25
2019-04-26T13:22:46.471Z,20.20
2019-04-26T13:25:26.220Z,20.52
2019-04-26T13:27:51.881Z,20.70
2019-04-26T13:30:32.764Z,24.15
2019-04-26T13:32:56.830Z,19.90
2019-04-26T13:35:28.583Z,20.80
2019-04-26T13:38:00.039Z,22.00
2019-04-26T13:40:31.894Z,20.95
2019-04-26T13:43:03.444Z,22.75
2019-04-26T13:45:37.591Z,20.85
2019-04-26T13:48:19.202Z,35.55
2019-04-26T13:51:07.948Z,20.00
2019-04-26T13:53:40.114Z,19.82
2019-04-26T13:56:11.532Z,18.75
2019-04-26T13:58:43.174Z,20.40
2019-04-26T14:01:18.668Z,17.95
2019-04-26T14:03:49.145Z,19.85
2019-04-26T14:06:20.803Z,19.98
2019-04-26T14:08:57.419Z,19.17
2019-04-26T14:11:29.386Z,18.92
2019-04-26T14:14:01.818Z,20.35
2019-04-26T14:16:33.361Z,19.48
2019-04-26T14:19:06.243Z,20.55
2019-04-26T14:21:37.808Z,18.42
2019-04-26T14:24:27.375Z,19.90
2019-04-26T14:27:00.877Z,19.67
2019-04-26T14:29:33.882Z,20.88
2019-04-26T14:32:05.611Z,21.27
2019-04-26T14:34:40.349Z,19.80
2019-04-26T14:37:11.261Z,25.75
2019-04-26T14:39:50.719Z,20.45
2019-04-26T14:42:16.952Z,19.37
2019-04-26T14:44:49.694Z,19.42
2019-04-26T14:47:21.485Z,19.70
2019-04-26T14:49:53.546Z,19.87
2019-04-26T14:52:27.653Z,20.12
2019-04-26T14:54:59.932Z,22.17
2019-04-26T14:57:33.922Z,20.20
2019-04-26T15:00:07.950Z,21.77
2019-04-26T15:02:58.239Z,20.65
2019-04-26T15:05:38.152Z,21.15
2019-04-26T15:08:11.711Z,19.85
2019-04-26T15:10:48.897Z,18.73
2019-04-26T15:13:20.675Z,19.05
2019-04-26T15:15:52.569Z,20.52
2019-04-26T15:18:24.350Z,22.25
2019-04-26T15:20:57.068Z,19.98
2019-04-26T15:23:29.804Z,19.60
2019-04-26T15:26:03.064Z,19.65
2019-04-26T15:28:34.557Z,21.57
2019-04-26T15:31:06.512Z,19.85
2019-04-26T15:33:38.270Z,20.57
2019-04-26T15:36:12.880Z,21.45
2019-04-26T15:38:45.078Z,20.05
2019-04-26T15:41:18.259Z,20.48
2019-04-26T15:43:53.354Z,19.57
2019-04-26T15:46:42.643Z,21.25
2019-04-26T15:49:19.742Z,24.05
2019-04-26T15:51:51.293Z,22.82
2019-04-26T15:54:23.661Z,20.82
2019-04-26T15:56:55.353Z,21.52
2019-04-26T15:59:27.178Z,24.70
2019-04-26T16:02:02.293Z,24.75
2019-04-26T16:04:33.872Z,23.65
2019-04-26T16:07:05.732Z,26.48
2019-04-26T16:09:37.285Z,25.70
2019-04-26T16:12:10.678Z,23.67
2019-04-26T16:14:42.535Z,24.43
2019-04-26T16:17:14.087Z,25.10
2019-04-26T16:19:45.639Z,23.77
2019-04-26T16:22:17.395Z,24.70
2019-04-26T16:24:51.179Z,25.62
2019-04-26T16:27:24.608Z,23.45
2019-04-26T16:29:59.465Z,23.87
2019-04-26T16:32:54.061Z,23.35
2019-04-26T16:35:28.052Z,23.52
2019-04-26T16:37:59.910Z,21.57
2019-04-26T16:40:29.805Z,21.90
2019-04-26T16:43:01.559Z,22.07
2019-04-26T16:45:37.225Z,28.27
2019-04-26T16:48:06.814Z,22.42
2019-04-26T16:50:44.292Z,23.20
2019-04-26T16:53:36.333Z,22.22
2019-04-26T16:55:52.589Z,22.02
2019-04-26T16:58:24.648Z,24.43
2019-04-26T17:00:58.102Z,22.82
2019-04-26T17:03:29.141Z,24.32
2019-04-26T17:06:06.779Z,25.52
2019-04-26T17:08:34.082Z,24.72
2019-04-26T17:11:05.737Z,25.08
2019-04-26T17:13:48.346Z,27.73
2019-04-26T17:16:10.394Z,28.50
2019-04-26T17:18:42.713Z,27.65
2019-04-26T17:21:17.689Z,30.40
2019-04-26T17:23:55.148Z,30.37
2019-04-26T17:26:36.396Z,32.65
2019-04-26T17:31:39.251Z,31.77
2019-04-26T17:34:12.566Z,32.80
2019-04-26T17:36:46.430Z,34.15
2019-04-26T17:39:18.488Z,31.85
2019-04-26T17:41:53.875Z,36.38
2019-04-26T17:44:26.569Z,30.55
2019-04-26T17:46:59.683Z,32.75
2019-04-26T17:49:34.602Z,33.08
2019-04-26T17:52:05.404Z,32.17
2019-04-26T17:54:46.040Z,33.15
2019-04-26T17:57:14.322Z,33.05
2019-04-26T17:59:47.696Z,31.00
2019-04-26T18:02:31.236Z,33.38
2019-04-26T18:04:58.878Z,31.73
2019-04-26T18:07:39.736Z,32.95
2019-04-26T18:09:56.910Z,33.75
2019-04-26T18:12:32.697Z,33.80
2019-04-26T18:15:06.259Z,33.92
2019-04-26T18:17:40.243Z,32.40
2019-04-26T18:25:46.478Z,34.80
2019-04-26T18:28:18.163Z,34.23
2019-04-26T18:30:50.033Z,36.85
2019-04-26T18:33:25.865Z,35.85
2019-04-26T18:35:57.476Z,37.13
2019-04-26T18:38:28.693Z,38.63
2019-04-26T18:41:01.477Z,36.10
2019-04-26T18:43:33.248Z,37.85
2019-04-26T18:46:06.763Z,38.45
2019-04-26T18:48:40.978Z,38.45
2019-04-26T18:51:12.287Z,49.85
2019-04-26T18:53:58.033Z,67.50
2019-04-26T18:56:33.705Z,128.18
2019-04-26T18:59:07.385Z,90.90
2019-04-26T19:01:40.662Z,92.78
2019-04-26T19:04:13.578Z,85.70
2019-04-26T19:06:43.775Z,69.77
2019-04-26T19:09:17.550Z,69.50
2019-04-26T19:11:49.948Z,75.87
2019-04-26T19:14:24.477Z,57.93
2019-04-26T19:17:16.113Z,58.35
2019-04-26T19:19:51.556Z,57.27
2019-04-26T19:22:23.406Z,51.35
2019-04-26T19:24:57.505Z,52.70
2019-04-26T19:27:29.109Z,51.75
2019-04-26T19:30:02.832Z,45.45
2019-04-26T19:32:39.659Z,44.67
2019-04-26T19:35:13.888Z,49.42
2019-04-26T19:37:43.401Z,44.63
2019-04-26T19:40:15.325Z,40.67
2019-04-26T19:42:51.317Z,36.23
2019-04-26T19:45:26.411Z,36.30
2019-04-26T19:48:03.293Z,33.92
2019-04-26T19:50:50.250Z,34.43
2019-04-26T19:53:24.933Z,34.88
2019-04-26T19:56:17.497Z,35.17
2019-04-26T19:58:57.383Z,36.45
2019-04-26T20:01:25.141Z,35.50
2019-04-26T20:03:56.535Z,32.23
2019-04-26T20:06:28.290Z,33.90
2019-04-26T20:09:01.847Z,33.28
2019-04-26T20:11:35.390Z,33.00
2019-04-26T20:14:07.339Z,32.67
2019-04-26T20:16:40.790Z,32.48
2019-04-26T20:19:17.757Z,33.58
2019-04-26T20:21:49.782Z,31.50
2019-04-26T20:24:22.234Z,27.20
2019-04-26T20:29:23.932Z,24.50
2019-04-26T20:31:56.983Z,22.98
2019-04-26T20:34:28.481Z,21.42
2019-04-26T20:37:01.478Z,22.13
2019-04-26T20:39:33.819Z,20.62
2019-04-26T20:42:05.489Z,20.60
2019-04-26T20:44:50.314Z,20.30
2019-04-26T20:47:14.327Z,21.37
2019-04-26T20:49:49.963Z,21.57
2019-04-26T20:52:21.465Z,19.90
2019-04-26T20:54:53.707Z,19.17
2019-04-26T20:57:26.692Z,20.25
2019-04-26T21:00:01.420Z,18.92
2019-04-26T21:02:30.197Z,19.60
2019-04-26T21:05:02.117Z,19.42
2019-04-26T21:07:36.407Z,19.17
2019-04-26T21:10:08.463Z,19.52
2019-04-26T21:12:41.661Z,19.05
2019-04-26T21:15:15.796Z,18.32
2019-04-26T21:17:46.405Z,19.37
2019-04-26T21:22:48.366Z,17.60
2019-04-26T21:27:54.454Z,17.17
2019-04-26T21:30:33.578Z,17.77
2019-04-26T21:33:08.452Z,17.30
2019-04-26T21:35:42.899Z,16.57
2019-04-26T21:38:33.681Z,15.53
2019-04-26T21:41:14.176Z,16.42
2019-04-26T21:43:47.458Z,15.98
2019-04-26T21:46:20.246Z,16.12
2019-04-26T21:48:53.429Z,14.90
2019-04-26T21:51:25.866Z,14.95
2019-04-26T21:56:28.157Z,15.48
2019-04-26T22:01:32.970Z,14.70
2019-04-26T22:04:06.211Z,14.63
2019-04-26T22:06:37.807Z,14.70
2019-04-26T22:09:14.550Z,14.23
2019-04-26T22:11:49.477Z,15.80
2019-04-26T22:14:21.577Z,14.68
2019-04-26T22:17:14.436Z,14.05
2019-04-26T22:22:41.468Z,14.30
2019-04-26T22:25:12.953Z,15.08
2019-04-26T22:27:44.435Z,15.23
2019-04-26T22:30:17.924Z,15.83
2019-04-26T22:32:54.610Z,16.48
2019-04-26T22:35:22.670Z,16.85
2019-04-26T22:37:54.189Z,15.68
2019-04-26T22:43:05.293Z,16.37
2019-04-26T22:45:44.130Z,17.17
2019-04-26T22:48:23.042Z,18.40
2019-04-26T22:50:52.165Z,16.73
2019-04-26T22:53:25.803Z,17.42
2019-04-26T22:55:57.810Z,22.80
2019-04-26T22:58:29.827Z,19.57
2019-04-26T23:01:03.327Z,17.30
2019-04-26T23:03:36.584Z,17.37
2019-04-26T23:06:11.695Z,15.40
2019-04-26T23:08:44.430Z,14.93
2019-04-26T23:11:16.289Z,15.53
2019-04-26T23:14:03.378Z,15.23
2019-04-26T23:17:01.651Z,15.72
2019-04-26T23:19:24.912Z,15.00
2019-04-26T23:22:00.801Z,14.83
2019-04-26T23:24:32.452Z,14.35
2019-04-26T23:27:04.418Z,14.60
2019-04-26T23:29:36.274Z,14.85
2019-04-26T23:32:12.113Z,15.30
2019-04-26T23:34:41.918Z,15.10
2019-04-26T23:39:49.789Z,16.40
2019-04-26T23:42:17.937Z,17.67
2019-04-26T23:44:49.900Z,19.85
2019-04-26T23:47:25.080Z,20.75
2019-04-26T23:49:57.000Z,21.42
2019-04-26T23:52:28.025Z,19.40
2019-04-26T23:54:59.542Z,17.60
